Time;durP1;ratioP1;P1;durP2;ratioP2;P2;SDS_P1;SDS_P2;PMS_P1;PMS_P2;Temp;Humidity;BMP_temperature;BMP_pressure;BME280_temperature;BME280_humidity;BME280_pressure;Samples;Min_cycle;Max_cycle;Signal;HPM_P1;HPM_P2
2023/08/14 00:00:21;;;;;;;;;;;;;;;21.50;82.53;98122.44;5051056;28;19978;-59
2023/08/14 00:02:50;;;;;;;;;;;;;;;21.52;82.79;98122.88;5046883;28;19933;-59
2023/08/14 00:05:18;;;;;;;;;;;;;;;21.57;82.44;98111.47;5046883;28;19940;-62
2023/08/14 00:07:46;;;;;;;;;;;;;;;21.53;82.62;98115.38;5049968;28;20606;-60
2023/08/14 00:10:13;;;;;;;;;;;;;;;21.53;82.68;98110.63;5034878;28;19967;-58
2023/08/14 00:12:41;;;;;;;;;;;;;;;21.52;82.73;98111.00;5051550;28;19925;-62
2023/08/14 00:15:09;;;;;;;;;;;;;;;21.52;82.43;98114.59;5048747;28;20355;-59
2023/08/14 00:17:37;;;;;;;;;;;;;;;21.53;82.71;98113.41;5039792;28;19929;-60
2023/08/14 00:20:07;;;;;;;;;;;;;;;21.48;82.74;98121.25;5048058;28;19931;-61
2023/08/14 00:22:35;;;;;;;;;;;;;;;21.47;82.86;98116.91;5043543;28;19932;-59
2023/08/14 00:25:03;;;;;;;;;;;;;;;21.49;82.82;98120.84;5049453;28;20596;-59
2023/08/14 00:27:33;;;;;;;;;;;;;;;21.45;83.13;98120.03;5050294;28;19979;-59
2023/08/14 00:30:02;;;;;;;;;;;;;;;21.45;83.15;98115.28;5034017;28;19983;-60
2023/08/14 00:32:30;;;;;;;;;;;;;;;21.46;83.07;98116.06;5053606;28;19925;-61
2023/08/14 00:34:58;;;;;;;;;;;;;;;21.49;82.95;98125.59;5034366;28;19936;-59
2023/08/14 00:37:41;;;;;;;;;;;;;;;21.41;83.25;98114.47;5030423;28;20393;-61
2023/08/14 00:40:10;;;;;;;;;;;;;;;21.41;83.49;98108.94;5049464;28;19924;-59
2023/08/14 00:42:38;;;;;;;;;;;;;;;21.45;83.25;98108.97;5051322;28;19925;-63
2023/08/14 00:45:06;;;;;;;;;;;;;;;21.45;83.01;98103.44;5040379;28;20645;-59
2023/08/14 00:47:35;;;;;;;;;;;;;;;21.43;83.18;98098.28;5024993;28;19925;-59
2023/08/14 00:50:03;;;;;;;;;;;;;;;21.34;83.56;98083.97;5037933;28;19976;-62
2023/08/14 00:52:32;;;;;;;;;;;;;;;21.34;83.85;98081.22;5028930;28;19929;-59
2023/08/14 00:55:02;;;;;;;;;;;;;;;21.37;83.61;98086.00;5042920;28;19961;-59
2023/08/14 00:57:30;;;;;;;;;;;;;;;21.42;83.55;98087.63;5039977;28;19985;-60
2023/08/14 00:59:58;;;;;;;;;;;;;;;21.39;83.60;98083.63;5046144;28;20027;-60
2023/08/14 01:02:26;;;;;;;;;;;;;;;21.28;84.00;98087.44;5028619;28;20020;-60
2023/08/14 01:04:54;;;;;;;;;;;;;;;21.30;84.18;98085.91;5034629;28;19980;-63
2023/08/14 01:07:21;;;;;;;;;;;;;;;21.34;84.12;98086.72;5027256;28;19929;-59
2023/08/14 01:09:49;;;;;;;;;;;;;;;21.37;83.81;98094.28;5049276;28;19925;-59
2023/08/14 01:12:20;;;;;;;;;;;;;;;21.34;85.21;98088.72;5029022;28;19968;-59
2023/08/14 01:14:48;;;;;;;;;;;;;;;21.35;85.57;98071.75;5028302;28;20717;-59
2023/08/14 01:17:17;;;;;;;;;;;;;;;21.33;86.33;98074.09;5025466;28;19929;-60
2023/08/14 01:19:45;;;;;;;;;;;;;;;21.26;87.60;98062.94;5038833;28;19929;-59
2023/08/14 01:22:15;;;;;;;;;;;;;;;21.25;87.71;98066.84;5035682;28;19929;-59
2023/08/14 01:24:47;;;;;;;;;;;;;;;21.22;89.57;98069.59;5039982;28;20052;-58
2023/08/14 01:27:16;;;;;;;;;;;;;;;21.15;91.17;98073.88;5039977;28;20577;-58
2023/08/14 01:29:45;;;;;;;;;;;;;;;21.11;91.77;98077.78;5030654;28;20348;-60
2023/08/14 01:32:13;;;;;;;;;;;;;;;21.15;90.74;98073.09;5028814;28;20305;-59
2023/08/14 01:34:41;;;;;;;;;;;;;;;21.20;90.56;98081.03;5029783;28;19979;-58
2023/08/14 01:37:10;;;;;;;;;;;;;;;21.12;90.17;98077.38;5043263;28;19933;-59
2023/08/14 01:39:39;;;;;;;;;;;;;;;21.11;90.38;98072.25;5018486;28;19939;-59
2023/08/14 01:42:10;;;;;;;;;;;;;;;21.00;90.21;98071.31;5029145;28;19925;-61
2023/08/14 01:44:39;;;;;;;;;;;;;;;20.98;90.20;98074.44;5050034;28;19932;-59
2023/08/14 01:47:07;;;;;;;;;;;;;;;21.00;90.48;98071.31;5015172;28;19925;-60
2023/08/14 01:49:35;;;;;;;;;;;;;;;20.98;91.10;98057.88;5059608;28;20452;-60
2023/08/14 01:52:04;;;;;;;;;;;;;;;21.02;90.36;98074.50;5033854;28;19925;-59
2023/08/14 01:54:32;;;;;;;;;;;;;;;20.99;90.72;98072.50;5049605;28;19928;-59
2023/08/14 01:57:01;;;;;;;;;;;;;;;21.06;90.56;98069.81;5041315;28;19959;-60
2023/08/14 01:59:35;;;;;;;;;;;;;;;21.01;90.25;98065.41;5061265;28;20374;-58
2023/08/14 02:02:05;;;;;;;;;;;;;;;21.02;90.22;98069.75;5031995;28;19966;-60
2023/08/14 02:04:33;;;;;;;;;;;;;;;21.03;90.50;98076.06;5033867;28;19924;-65
2023/08/14 02:07:03;;;;;;;;;;;;;;;21.06;90.44;98072.56;5048933;28;19935;-66
2023/08/14 02:09:31;;;;;;;;;;;;;;;20.98;90.98;98079.16;5034215;28;20293;-58
2023/08/14 02:11:59;;;;;;;;;;;;;;;21.04;90.32;98077.66;5056085;28;19925;-58
2023/08/14 02:14:27;;;;;;;;;;;;;;;21.05;90.10;98084.81;5032240;28;20400;-59
2023/08/14 02:16:56;;;;;;;;;;;;;;;21.07;90.24;98085.22;5061144;28;19960;-61
2023/08/14 02:19:25;;;;;;;;;;;;;;;21.06;90.61;98070.59;5063052;28;19925;-58
2023/08/14 02:21:53;;;;;;;;;;;;;;;20.97;90.05;98072.84;5039199;28;19929;-59
2023/08/14 02:24:21;;;;;;;;;;;;;;;21.00;90.41;98074.88;5049217;28;19925;-59
2023/08/14 02:26:49;;;;;;;;;;;;;;;21.02;90.23;98080.81;5062670;28;19928;-58
2023/08/14 02:29:18;;;;;;;;;;;;;;;20.97;89.68;98080.34;5048518;28;19924;-59
2023/08/14 02:31:47;;;;;;;;;;;;;;;20.90;90.13;98076.34;5049939;28;20020;-59
2023/08/14 02:34:33;;;;;;;;;;;;;;;20.87;90.61;98077.06;5047194;28;19932;-59
2023/08/14 02:37:02;;;;;;;;;;;;;;;20.81;91.36;98075.81;5057317;28;19925;-58
2023/08/14 02:39:31;;;;;;;;;;;;;;;20.88;90.66;98086.97;5037325;28;19931;-58
2023/08/14 02:41:59;;;;;;;;;;;;;;;20.89;90.48;98085.78;5063745;28;19932;-59
2023/08/14 02:44:27;;;;;;;;;;;;;;;20.89;90.63;98085.78;5040230;28;19935;-59
2023/08/14 02:46:58;;;;;;;;;;;;;;;20.95;90.25;98086.25;5038175;28;20377;-59
2023/08/14 02:49:27;;;;;;;;;;;;;;;20.83;91.62;98078.22;5063628;28;19933;-59
2023/08/14 02:51:55;;;;;;;;;;;;;;;20.82;91.62;98071.88;5047161;28;19925;-59
2023/08/14 02:54:24;;;;;;;;;;;;;;;20.87;91.25;98068.00;5024326;28;19933;-60
2023/08/14 02:56:52;;;;;;;;;;;;;;;20.88;91.13;98058.56;5027508;28;19936;-59
2023/08/14 02:59:21;;;;;;;;;;;;;;;20.89;90.95;98044.38;5060423;28;19929;-59
2023/08/14 03:01:49;;;;;;;;;;;;;;;20.85;91.07;98032.47;5050305;28;19928;-59
2023/08/14 03:04:17;;;;;;;;;;;;;;;20.89;91.23;98027.81;5045092;28;19936;-60
2023/08/14 03:06:45;;;;;;;;;;;;;;;20.91;91.09;98028.22;5061971;28;19929;-59
2023/08/14 03:09:13;;;;;;;;;;;;;;;20.89;90.90;98016.75;5043813;28;19943;-58
2023/08/14 03:11:42;;;;;;;;;;;;;;;20.85;91.21;98010.38;5034729;28;20382;-59
2023/08/14 03:14:10;;;;;;;;;;;;;;;20.77;92.28;98019.75;5031201;28;20034;-59
2023/08/14 03:16:37;;;;;;;;;;;;;;;20.85;91.96;98010.38;5064811;28;20369;-58
2023/08/14 03:19:04;;;;;;;;;;;;;;;20.86;91.39;98006.44;5031572;28;20019;-60
2023/08/14 03:21:32;;;;;;;;;;;;;;;20.89;91.34;98008.47;5037008;28;19933;-59
2023/08/14 03:24:00;;;;;;;;;;;;;;;20.82;91.68;98016.66;5034923;28;19932;-59
2023/08/14 03:26:29;;;;;;;;;;;;;;;20.67;92.61;98015.72;5060559;28;19932;-58
2023/08/14 03:28:58;;;;;;;;;;;;;;;20.74;92.13;98025.25;5031087;28;19975;-60
2023/08/14 03:31:26;;;;;;;;;;;;;;;20.75;91.91;98027.63;5058711;28;19925;-59
2023/08/14 03:33:55;;;;;;;;;;;;;;;20.81;91.62;98019.78;5043596;28;19933;-58
2023/08/14 03:36:24;;;;;;;;;;;;;;;20.83;91.16;98028.53;5046641;28;20389;-59
2023/08/14 03:38:52;;;;;;;;;;;;;;;20.80;90.74;98027.28;5032536;28;20017;-60
2023/08/14 03:41:20;;;;;;;;;;;;;;;20.81;90.20;98028.88;5032383;28;21558;-62
2023/08/14 03:43:48;;;;;;;;;;;;;;;20.80;90.21;98027.28;5048161;28;19928;-59
2023/08/14 03:46:19;;;;;;;;;;;;;;;20.83;90.13;98032.06;5029882;28;19929;-59
2023/08/14 03:48:49;;;;;;;;;;;;;;;20.82;89.93;98032.44;5044419;28;19956;-59
2023/08/14 03:51:17;;;;;;;;;;;;;;;20.81;89.76;98026.13;5025634;28;19928;-60
2023/08/14 03:53:45;;;;;;;;;;;;;;;20.82;89.67;98030.47;5043811;28;19925;-59
2023/08/14 03:56:13;;;;;;;;;;;;;;;20.82;89.47;98027.69;5032514;28;19925;-59
2023/08/14 03:58:41;;;;;;;;;;;;;;;20.81;89.38;98030.84;5029768;28;19925;-59
2023/08/14 04:01:08;;;;;;;;;;;;;;;20.76;89.85;98045.78;5042078;28;19925;-60
2023/08/14 04:03:38;;;;;;;;;;;;;;;20.66;90.86;98043.66;5061627;28;20751;-59
2023/08/14 04:06:06;;;;;;;;;;;;;;;20.67;90.01;98037.00;5050345;28;19925;-62
2023/08/14 04:08:34;;;;;;;;;;;;;;;20.69;89.88;98040.16;5062242;28;19986;-60
2023/08/14 04:11:04;;;;;;;;;;;;;;;20.72;89.78;98039.44;5065765;28;19933;-61
2023/08/14 04:13:44;;;;;;;;;;;;;;;20.73;89.90;98038.25;5052835;28;19925;-59
2023/08/14 04:16:12;;;;;;;;;;;;;;;20.75;89.46;98048.91;5033442;28;19932;-59
2023/08/14 04:18:41;;;;;;;;;;;;;;;20.75;89.20;98037.88;5052050;28;19928;-60
2023/08/14 04:21:09;;;;;;;;;;;;;;;20.76;89.07;98040.25;5049392;28;19925;-58
2023/08/14 04:23:37;;;;;;;;;;;;;;;20.77;88.96;98036.31;5051212;28;20351;-59
2023/08/14 04:26:06;;;;;;;;;;;;;;;20.70;89.64;98047.28;5050440;28;19925;-60
2023/08/14 04:28:34;;;;;;;;;;;;;;;20.65;90.23;98061.41;5046397;28;20448;-61
2023/08/14 04:31:02;;;;;;;;;;;;;;;20.68;89.73;98044.09;5046850;28;20285;-63
2023/08/14 04:33:31;;;;;;;;;;;;;;;20.72;89.31;98047.72;5030823;28;19925;-59
2023/08/14 04:36:01;;;;;;;;;;;;;;;20.61;90.54;98068.84;5048920;28;20332;-59
2023/08/14 04:38:30;;;;;;;;;;;;;;;20.54;91.15;98058.50;5065799;28;19924;-59
2023/08/14 04:41:00;;;;;;;;;;;;;;;20.47;91.78;98066.69;5031326;28;20285;-60
2023/08/14 04:43:31;;;;;;;;;;;;;;;20.47;90.88;98052.09;5059488;28;20273;-60
2023/08/14 04:46:02;;;;;;;;;;;;;;;20.51;90.64;98055.72;5047098;28;19925;-60
2023/08/14 04:48:30;;;;;;;;;;;;;;;20.46;90.55;98042.22;5060180;28;19928;-60
2023/08/14 04:50:58;;;;;;;;;;;;;;;20.47;90.92;98043.81;5046999;28;19982;-63
2023/08/14 04:53:28;;;;;;;;;;;;;;;20.48;90.45;98028.84;5044811;28;19928;-60
2023/08/14 04:55:55;;;;;;;;;;;;;;;20.45;90.47;98026.78;5038182;28;19968;-58
2023/08/14 04:58:23;;;;;;;;;;;;;;;20.47;90.74;98022.53;5028536;28;19925;-59
2023/08/14 05:00:51;;;;;;;;;;;;;;;20.47;90.83;98028.06;5061416;28;19979;-59
2023/08/14 05:03:20;;;;;;;;;;;;;;;20.42;92.89;98031.09;5043672;28;19931;-60
2023/08/14 05:05:52;;;;;;;;;;;;;;;20.47;92.14;98041.06;5059328;28;19947;-58
2023/08/14 05:08:19;;;;;;;;;;;;;;;20.39;92.29;98043.66;5029360;28;19929;-63
2023/08/14 05:10:52;;;;;;;;;;;;;;;20.46;91.56;98039.44;5044870;28;19925;-59
2023/08/14 05:13:20;;;;;;;;;;;;;;;20.44;91.20;98045.31;5055088;28;19932;-60
2023/08/14 05:15:49;;;;;;;;;;;;;;;20.48;91.13;98048.97;5059078;28;19936;-59
2023/08/14 05:18:26;;;;;;;;;;;;;;;20.51;90.34;98034.44;5044420;28;20329;-61
2023/08/14 05:20:54;;;;;;;;;;;;;;;20.53;90.20;98025.75;5032195;28;20012;-59
2023/08/14 05:23:22;;;;;;;;;;;;;;;20.53;90.17;98023.78;5043122;28;19963;-59
2023/08/14 05:25:53;;;;;;;;;;;;;;;20.55;89.77;98028.94;5046843;28;20294;-60
2023/08/14 05:28:21;;;;;;;;;;;;;;;20.59;89.49;98032.53;5046280;28;19925;-58
2023/08/14 05:30:49;;;;;;;;;;;;;;;20.53;89.18;98020.25;5043745;28;19932;-61
2023/08/14 05:33:17;;;;;;;;;;;;;;;20.55;89.25;98015.13;5046578;28;20319;-58
2023/08/14 05:35:45;;;;;;;;;;;;;;;20.56;89.16;98013.97;5061252;28;19929;-60
2023/08/14 05:38:13;;;;;;;;;;;;;;;20.53;88.75;98012.75;5039809;28;20391;-59
2023/08/14 05:40:41;;;;;;;;;;;;;;;20.53;88.46;98009.19;5050396;28;19931;-64
2023/08/14 05:43:10;;;;;;;;;;;;;;;20.55;88.55;98006.84;5048839;28;19929;-60
2023/08/14 05:45:42;;;;;;;;;;;;;;;20.56;88.75;98008.44;5047978;28;19932;-58
2023/08/14 05:48:10;;;;;;;;;;;;;;;20.56;89.29;98020.28;5038558;28;19971;-61
2023/08/14 05:50:41;;;;;;;;;;;;;;;20.60;89.38;98021.13;5047334;28;19924;-60
2023/08/14 05:53:09;;;;;;;;;;;;;;;20.55;90.01;98028.94;5045006;28;19939;-61
2023/08/14 05:55:37;;;;;;;;;;;;;;;20.52;90.95;98024.19;5035321;28;19931;-60
2023/08/14 05:58:05;;;;;;;;;;;;;;;20.54;90.47;98016.31;5043848;28;19925;-62
2023/08/14 06:00:35;;;;;;;;;;;;;;;20.53;90.36;98014.72;5042561;28;20440;-63
2023/08/14 06:03:04;;;;;;;;;;;;;;;20.54;90.22;98014.34;5044694;28;19925;-59
2023/08/14 06:05:32;;;;;;;;;;;;;;;20.57;90.49;98001.78;5028801;28;19983;-60
2023/08/14 06:08:02;;;;;;;;;;;;;;;20.58;90.52;97998.63;5048435;28;19971;-59
2023/08/14 06:10:29;;;;;;;;;;;;;;;20.61;90.28;98002.59;5040483;28;20389;-62
2023/08/14 06:12:57;;;;;;;;;;;;;;;20.60;90.30;97992.72;5040985;28;20347;-59
2023/08/14 06:15:25;;;;;;;;;;;;;;;20.62;90.31;97993.94;5047327;28;20297;-60
2023/08/14 06:17:55;;;;;;;;;;;;;;;20.61;90.07;97994.31;5046303;28;19925;-58
2023/08/14 06:20:23;;;;;;;;;;;;;;;20.60;90.14;97993.50;5043622;28;19936;-59
2023/08/14 06:22:50;;;;;;;;;;;;;;;20.61;90.25;98005.34;5047808;28;19932;-65
2023/08/14 06:25:19;;;;;;;;;;;;;;;20.65;90.04;98000.66;5042193;28;20558;-59
2023/08/14 06:27:49;;;;;;;;;;;;;;;20.64;90.17;98005.41;5043646;28;20099;-59
2023/08/14 06:30:20;;;;;;;;;;;;;;;20.65;89.92;98008.94;5054433;28;19929;-60
2023/08/14 06:32:48;;;;;;;;;;;;;;;20.64;90.62;98010.94;5046943;28;19924;-59
2023/08/14 06:35:17;;;;;;;;;;;;;;;20.63;91.07;98023.13;5049040;28;19929;-59
2023/08/14 06:37:45;;;;;;;;;;;;;;;20.56;91.63;98022.25;5048482;28;19932;-59
2023/08/14 06:40:13;;;;;;;;;;;;;;;20.60;91.87;98025.84;5047735;28;20286;-59
2023/08/14 06:42:41;;;;;;;;;;;;;;;20.60;92.12;98036.88;5026274;28;19925;-58
2023/08/14 06:45:09;;;;;;;;;;;;;;;20.60;91.61;98036.88;5020762;28;19941;-61
2023/08/14 06:47:42;;;;;;;;;;;;;;;20.66;91.57;98036.19;5026961;28;19946;-58
2023/08/14 06:50:10;;;;;;;;;;;;;;;20.76;91.30;98045.78;5016527;28;19926;-60
2023/08/14 06:52:39;;;;;;;;;;;;;;;20.82;90.73;98038.75;5017684;28;19943;-59
2023/08/14 06:55:08;;;;;;;;;;;;;;;20.87;90.67;98041.16;5021158;28;19925;-59
2023/08/14 06:57:35;;;;;;;;;;;;;;;20.91;90.30;98041.22;5019736;28;19932;-64
2023/08/14 07:00:05;;;;;;;;;;;;;;;20.95;90.48;98036.53;5025409;28;19984;-59
2023/08/14 07:02:33;;;;;;;;;;;;;;;20.95;90.75;98033.00;5019628;28;20435;-59
2023/08/14 07:05:01;;;;;;;;;;;;;;;20.98;90.57;98021.16;5017957;28;20070;-59
2023/08/14 07:07:33;;;;;;;;;;;;;;;20.98;89.99;98021.16;5018132;28;20425;-60
2023/08/14 07:10:02;;;;;;;;;;;;;;;20.95;90.23;98025.50;5016256;28;19929;-63
2023/08/14 07:12:30;;;;;;;;;;;;;;;20.96;90.37;98031.81;5013035;28;19925;-60
2023/08/14 07:15:00;;;;;;;;;;;;;;;20.97;90.53;98033.41;5017762;28;19932;-59
2023/08/14 07:17:28;;;;;;;;;;;;;;;21.06;90.38;98036.66;5019285;28;20032;-58
2023/08/14 07:19:56;;;;;;;;;;;;;;;21.09;89.81;98050.53;5017971;28;21880;-59
2023/08/14 07:22:26;;;;;;;;;;;;;;;21.18;89.39;98056.53;5023684;28;19928;-62
2023/08/14 07:24:54;;;;;;;;;;;;;;;21.28;89.06;98043.22;5029699;28;19925;-59
2023/08/14 07:27:23;;;;;;;;;;;;;;;21.35;88.85;98051.59;5023606;28;19929;-60
2023/08/14 07:29:51;;;;;;;;;;;;;;;21.36;88.51;98051.25;5042504;28;19979;-59
2023/08/14 07:32:19;;;;;;;;;;;;;;;21.42;87.77;98048.94;5026357;28;20337;-59
2023/08/14 07:34:48;;;;;;;;;;;;;;;21.42;86.86;98033.13;5045651;28;19933;-59
2023/08/14 07:37:16;;;;;;;;;;;;;;;21.54;87.17;98017.44;5026017;28;19980;-61
2023/08/14 07:39:44;;;;;;;;;;;;;;;21.60;86.94;98024.22;5030099;28;19925;-60
2023/08/14 07:42:12;;;;;;;;;;;;;;;21.65;86.96;98019.13;5028970;28;19980;-59
2023/08/14 07:44:41;;;;;;;;;;;;;;;21.67;86.38;98032.56;5032576;28;19940;-59
2023/08/14 07:47:10;;;;;;;;;;;;;;;21.77;86.66;98044.91;5028437;28;19986;-59
2023/08/14 07:49:38;;;;;;;;;;;;;;;21.79;86.73;98046.13;5032495;28;19967;-60
2023/08/14 07:52:06;;;;;;;;;;;;;;;21.90;86.64;98041.47;5041394;28;19925;-62
2023/08/14 07:54:34;;;;;;;;;;;;;;;21.92;86.61;98044.63;5030259;28;19925;-60
2023/08/14 07:57:02;;;;;;;;;;;;;;;22.00;86.37;98055.75;5029213;28;19925;-59
2023/08/14 07:59:30;;;;;;;;;;;;;;;22.05;85.28;98056.22;5046467;28;20439;-60
2023/08/14 08:01:59;;;;;;;;;;;;;;;22.05;84.59;98058.16;5045773;28;19935;-60
2023/08/14 08:04:29;;;;;;;;;;;;;;;22.10;84.52;98064.16;5026400;28;19929;-59
2023/08/14 08:07:08;;;;;;;;;;;;;;;22.11;84.05;98045.59;5029537;28;19929;-59
2023/08/14 08:09:37;;;;;;;;;;;;;;;22.25;83.42;98053.19;5028400;28;19936;-58
2023/08/14 08:12:06;;;;;;;;;;;;;;;22.22;83.09;98049.25;5025997;28;19936;-58
2023/08/14 08:14:34;;;;;;;;;;;;;;;22.30;82.98;98056.41;5039363;28;19925;-58
2023/08/14 08:17:04;;;;;;;;;;;;;;;22.42;83.34;98056.06;5022425;28;20651;-63
2023/08/14 08:19:32;;;;;;;;;;;;;;;22.47;82.43;98063.22;5026548;28;19929;-59
2023/08/14 08:22:00;;;;;;;;;;;;;;;22.43;81.89;98062.44;5036691;28;20417;-60
2023/08/14 08:24:30;;;;;;;;;;;;;;;22.52;81.56;98060.09;5031382;28;19932;-60
2023/08/14 08:26:58;;;;;;;;;;;;;;;22.58;81.06;98064.06;5031970;28;19933;-61
2023/08/14 08:29:26;;;;;;;;;;;;;;;22.64;81.14;98062.53;5027422;28;19944;-58
2023/08/14 08:31:54;;;;;;;;;;;;;;;22.65;81.07;98057.81;5028748;28;20024;-58
2023/08/14 08:34:23;;;;;;;;;;;;;;;22.74;80.98;98061.00;5030519;28;19971;-63
2023/08/14 08:36:51;;;;;;;;;;;;;;;22.81;80.39;98063.81;5024066;28;20020;-58
2023/08/14 08:39:19;;;;;;;;;;;;;;;22.85;80.69;98067.41;5029350;28;20382;-58
2023/08/14 08:41:47;;;;;;;;;;;;;;;22.86;78.64;98066.22;5032207;28;20370;-58
2023/08/14 08:44:16;;;;;;;;;;;;;;;22.94;79.49;98069.81;5032417;28;19924;-58
2023/08/14 08:46:52;;;;;;;;;;;;;;;22.96;79.60;98065.50;5044737;28;19929;-58
2023/08/14 08:49:20;;;;;;;;;;;;;;;22.95;77.30;98069.44;5048740;28;20459;-59
2023/08/14 08:51:49;;;;;;;;;;;;;;;23.00;78.78;98066.28;5045924;28;20036;-59
2023/08/14 08:54:17;;;;;;;;;;;;;;;22.99;77.32;98061.94;5036616;28;19953;-61
2023/08/14 08:56:45;;;;;;;;;;;;;;;23.05;77.83;98058.78;5044182;28;19937;-59
2023/08/14 08:59:13;;;;;;;;;;;;;;;23.12;76.61;98056.06;5048351;28;20451;-59
2023/08/14 09:01:42;;;;;;;;;;;;;;;23.14;76.99;98060.00;5050704;28;19924;-59
2023/08/14 09:04:10;;;;;;;;;;;;;;;23.19;76.69;98061.63;5051588;28;19925;-58
2023/08/14 09:06:38;;;;;;;;;;;;;;;23.25;76.17;98060.84;5061203;28;20269;-58
2023/08/14 09:09:07;;;;;;;;;;;;;;;23.26;75.84;98061.63;5048719;28;19925;-60
2023/08/14 09:11:37;;;;;;;;;;;;;;;23.32;75.72;98065.59;5048218;28;19968;-59
2023/08/14 09:14:05;;;;;;;;;;;;;;;23.30;76.03;98070.75;5042884;28;20285;-60
2023/08/14 09:16:33;;;;;;;;;;;;;;;23.37;75.65;98065.22;5050529;28;19933;-59
2023/08/14 09:19:01;;;;;;;;;;;;;;;23.38;74.21;98054.91;5050083;28;19959;-58
2023/08/14 09:21:29;;;;;;;;;;;;;;;23.43;74.38;98060.06;5046350;28;19925;-61
2023/08/14 09:23:57;;;;;;;;;;;;;;;23.51;73.52;98064.47;5048354;28;19996;-60
2023/08/14 09:26:26;;;;;;;;;;;;;;;23.53;74.34;98057.31;5046068;28;19932;-61
2023/08/14 09:28:54;;;;;;;;;;;;;;;23.52;73.61;98061.28;5045319;28;19924;-60
2023/08/14 09:31:22;;;;;;;;;;;;;;;23.62;74.02;98053.38;5049365;28;19929;-60
2023/08/14 09:33:50;;;;;;;;;;;;;;;23.65;73.50;98058.16;5050787;28;19951;-60
2023/08/14 09:36:18;;;;;;;;;;;;;;;23.71;73.99;98062.94;5047002;28;19924;-63
2023/08/14 09:38:45;;;;;;;;;;;;;;;23.72;73.95;98060.97;5050407;28;19924;-61
2023/08/14 09:41:13;;;;;;;;;;;;;;;23.82;74.05;98062.94;5043838;28;19925;-60
2023/08/14 09:43:45;;;;;;;;;;;;;;;23.87;73.42;98057.00;5043643;28;19925;-57
2023/08/14 09:46:14;;;;;;;;;;;;;;;23.91;73.50;98057.78;5047314;28;20012;-59
2023/08/14 09:48:42;;;;;;;;;;;;;;;23.97;72.95;98061.78;5064793;28;20019;-61
2023/08/14 09:51:11;;;;;;;;;;;;;;;24.12;71.93;98067.28;5050215;28;20333;-59
2023/08/14 09:53:45;;;;;;;;;;;;;;;24.26;71.48;98070.06;5034291;28;20397;-59
2023/08/14 09:56:13;;;;;;;;;;;;;;;24.22;72.12;98078.41;5046189;28;19925;-61
2023/08/14 09:58:41;;;;;;;;;;;;;;;24.20;71.77;98066.13;5034715;28;19925;-59
2023/08/14 10:01:11;;;;;;;;;;;;;;;24.20;72.33;98068.88;5044207;28;19939;-60
2023/08/14 10:03:40;;;;;;;;;;;;;;;24.20;70.65;98071.66;5037583;28;20383;-63
2023/08/14 10:06:08;;;;;;;;;;;;;;;24.21;71.66;98073.25;5045541;28;19946;-70
2023/08/14 10:08:36;;;;;;;;;;;;;;;24.22;72.46;98063.72;5039650;28;19974;-71
2023/08/14 10:11:04;;;;;;;;;;;;;;;24.29;70.48;98063.72;5038223;28;20517;-70
2023/08/14 10:13:46;;;;;;;;;;;;;;;24.36;69.67;98049.06;5025585;28;19925;-70
2023/08/14 10:16:23;;;;;;;;;;;;;;;24.33;68.94;98053.41;5039587;28;19929;-70
2023/08/14 10:18:52;;;;;;;;;;;;;;;24.38;69.35;98053.03;5045715;28;19929;-70
2023/08/14 10:21:20;;;;;;;;;;;;;;;24.47;69.54;98041.50;5048419;28;20308;-69
2023/08/14 10:23:49;;;;;;;;;;;;;;;24.49;68.81;98030.78;5046344;28;20006;-70
2023/08/14 10:26:16;;;;;;;;;;;;;;;24.49;68.25;98030.78;5045854;28;19932;-70
2023/08/14 10:28:45;;;;;;;;;;;;;;;24.49;67.58;98034.34;5042777;28;19933;-68
2023/08/14 10:31:13;;;;;;;;;;;;;;;24.47;66.59;98028.41;5044196;28;19925;-67
2023/08/14 10:33:42;;;;;;;;;;;;;;;24.47;66.25;98025.63;5024688;28;20331;-68
2023/08/14 10:36:10;;;;;;;;;;;;;;;24.55;66.63;98024.44;5046278;28;19925;-67
2023/08/14 10:38:42;;;;;;;;;;;;;;;24.54;66.59;98014.50;5024914;28;20381;-67
2023/08/14 10:41:10;;;;;;;;;;;;;;;24.58;66.01;98002.59;5062692;28;19968;-67
2023/08/14 10:43:38;;;;;;;;;;;;;;;24.86;64.59;98010.81;5042813;28;20027;-69
2023/08/14 10:46:08;;;;;;;;;;;;;;;24.90;65.25;98008.81;5043989;28;19964;-69
2023/08/14 10:48:36;;;;;;;;;;;;;;;24.97;65.46;98010.75;5061117;28;19932;-69
2023/08/14 10:51:05;;;;;;;;;;;;;;;24.91;65.03;98015.94;5027126;28;20046;-68
2023/08/14 10:53:33;;;;;;;;;;;;;;;24.87;64.42;98017.16;5033267;28;19925;-68
2023/08/14 10:56:01;;;;;;;;;;;;;;;24.80;65.44;98017.97;5041965;28;19925;-68
2023/08/14 10:58:36;;;;;;;;;;;;;;;24.77;64.85;98022.38;5029658;28;19932;-68
2023/08/14 11:01:05;;;;;;;;;;;;;;;24.87;65.45;98019.94;5048210;28;20576;-68
2023/08/14 11:03:33;;;;;;;;;;;;;;;24.88;64.23;98000.09;5040620;28;19925;-68
2023/08/14 11:06:01;;;;;;;;;;;;;;;24.87;65.18;98003.25;5048931;28;19933;-68
2023/08/14 11:08:30;;;;;;;;;;;;;;;24.93;65.42;98005.22;5043910;28;19951;-68
2023/08/14 11:10:59;;;;;;;;;;;;;;;24.98;64.64;98007.59;5048363;28;19936;-68
2023/08/14 11:13:28;;;;;;;;;;;;;;;24.97;64.42;98008.75;5049485;28;20333;-68
2023/08/14 11:15:59;;;;;;;;;;;;;;;25.10;64.37;98005.56;5043576;28;19925;-68
2023/08/14 11:18:27;;;;;;;;;;;;;;;25.12;62.33;98003.97;5047154;28;20061;-68
2023/08/14 11:20:55;;;;;;;;;;;;;;;25.17;60.03;98014.66;5049698;28;20001;-68
2023/08/14 11:23:25;;;;;;;;;;;;;;;25.28;60.62;98007.03;5048194;28;19995;-67
2023/08/14 11:25:55;;;;;;;;;;;;;;;25.30;59.92;98001.06;5050798;28;19932;-68
2023/08/14 11:28:23;;;;;;;;;;;;;;;25.23;60.45;98003.91;5046577;28;19925;-68
2023/08/14 11:30:51;;;;;;;;;;;;;;;25.21;60.93;98009.09;5031607;28;20565;-67
2023/08/14 11:33:19;;;;;;;;;;;;;;;25.29;60.50;98010.59;5050854;28;20519;-67
2023/08/14 11:35:47;;;;;;;;;;;;;;;25.34;59.69;98010.19;5052460;28;19978;-68
2023/08/14 11:38:17;;;;;;;;;;;;;;;25.40;59.94;98008.53;5053912;28;20032;-67
2023/08/14 11:40:45;;;;;;;;;;;;;;;25.48;59.22;98010.09;5051993;28;19925;-68
2023/08/14 11:43:14;;;;;;;;;;;;;;;25.44;59.62;98002.97;5051406;28;19970;-68
2023/08/14 11:45:42;;;;;;;;;;;;;;;25.48;59.64;98001.75;5049639;28;19925;-67
2023/08/14 11:48:10;;;;;;;;;;;;;;;25.43;59.43;97996.63;5050184;28;20284;-68
2023/08/14 11:50:38;;;;;;;;;;;;;;;25.47;59.45;97991.03;5051043;28;19970;-67
2023/08/14 11:53:07;;;;;;;;;;;;;;;25.56;59.80;97991.34;5051162;28;19933;-68
2023/08/14 11:55:35;;;;;;;;;;;;;;;25.68;58.17;97995.66;5049431;28;19932;-67
2023/08/14 11:58:03;;;;;;;;;;;;;;;25.83;58.68;97997.13;5050495;28;19925;-67
2023/08/14 12:00:32;;;;;;;;;;;;;;;25.98;56.84;97987.44;5067032;28;20381;-67
2023/08/14 12:03:01;;;;;;;;;;;;;;;25.88;57.20;97991.13;5051449;28;19936;-67
2023/08/14 12:05:29;;;;;;;;;;;;;;;25.91;59.23;97993.09;5066943;28;19925;-66
2023/08/14 12:07:59;;;;;;;;;;;;;;;26.03;57.49;97989.00;5066736;28;19932;-66
2023/08/14 12:10:31;;;;;;;;;;;;;;;25.91;58.54;97986.72;5049818;28;20266;-66
2023/08/14 12:12:59;;;;;;;;;;;;;;;25.87;59.40;97986.75;5051441;28;19932;-65
2023/08/14 12:15:26;;;;;;;;;;;;;;;25.88;58.43;97979.97;5051085;28;19928;-66
2023/08/14 12:17:56;;;;;;;;;;;;;;;26.01;58.53;97972.72;5029695;28;19932;-66
2023/08/14 12:20:24;;;;;;;;;;;;;;;25.96;58.97;97978.72;5047028;28;19933;-66
2023/08/14 12:22:52;;;;;;;;;;;;;;;26.07;58.58;97954.34;5051806;28;19963;-66
2023/08/14 12:25:28;;;;;;;;;;;;;;;26.05;59.42;97958.75;5046048;28;19929;-66
2023/08/14 12:27:58;;;;;;;;;;;;;;;25.97;58.79;97958.03;5051732;28;19936;-67
2023/08/14 12:30:26;;;;;;;;;;;;;;;26.01;58.91;97953.22;5051045;28;19960;-66
2023/08/14 12:32:54;;;;;;;;;;;;;;;26.06;58.72;97954.78;5047508;28;19936;-66
2023/08/14 12:35:24;;;;;;;;;;;;;;;26.12;58.53;97948.34;5048582;28;19928;-67
2023/08/14 12:37:52;;;;;;;;;;;;;;;26.16;58.49;97953.09;5052073;28;19924;-66
2023/08/14 12:40:20;;;;;;;;;;;;;;;26.17;57.60;97946.31;5040202;28;19929;-67
2023/08/14 12:42:48;;;;;;;;;;;;;;;26.24;57.31;97943.44;5050359;28;20386;-67
2023/08/14 12:45:15;;;;;;;;;;;;;;;26.39;55.35;97953.22;5051875;28;19978;-67
2023/08/14 12:47:43;;;;;;;;;;;;;;;26.36;56.62;97948.47;5043727;28;19930;-66
2023/08/14 12:50:11;;;;;;;;;;;;;;;26.36;56.00;97942.88;5045393;28;20357;-67
2023/08/14 12:52:40;;;;;;;;;;;;;;;26.47;55.89;97945.56;5041633;28;19936;-67
2023/08/14 12:55:09;;;;;;;;;;;;;;;26.53;55.27;97944.72;5057921;28;19947;-67